createdAt,value
2019-02-23T00:00:43.847Z,6.99
2019-02-23T00:01:43.840Z,6.90
2019-02-23T00:02:43.828Z,6.83
2019-02-23T00:03:43.833Z,6.72
2019-02-23T00:04:43.829Z,6.58
2019-02-23T00:05:43.798Z,6.50
2019-02-23T00:06:43.853Z,6.27
2019-02-23T00:07:43.774Z,5.99
2019-02-23T00:08:43.761Z,5.75
2019-02-23T00:09:43.812Z,5.59
2019-02-23T00:10:43.784Z,5.56
2019-02-23T00:11:43.731Z,5.63
2019-02-23T00:12:43.726Z,5.77
2019-02-23T00:13:43.723Z,5.75
2019-02-23T00:14:43.721Z,5.80
2019-02-23T00:15:43.740Z,5.77
2019-02-23T00:16:43.713Z,5.65
2019-02-23T00:17:43.664Z,5.56
2019-02-23T00:18:43.665Z,5.26
2019-02-23T00:19:43.665Z,5.37
2019-02-23T00:20:43.670Z,5.32
2019-02-23T00:21:43.626Z,5.47
2019-02-23T00:22:43.626Z,5.19
2019-02-23T00:23:43.601Z,5.11
2019-02-23T00:24:43.622Z,4.91
2019-02-23T00:25:43.598Z,4.96
2019-02-23T00:26:43.593Z,4.99
2019-02-23T00:27:43.603Z,4.97
2019-02-23T00:28:43.556Z,5.12
2019-02-23T00:29:43.590Z,5.14
2019-02-23T00:30:43.576Z,5.08
2019-02-23T00:31:43.534Z,5.23
2019-02-23T00:32:43.508Z,5.33
2019-02-23T00:33:43.551Z,5.35
2019-02-23T00:34:43.514Z,5.23
2019-02-23T00:35:43.490Z,5.38
2019-02-23T00:36:43.491Z,5.42
2019-02-23T00:37:43.501Z,5.42
2019-02-23T00:38:43.486Z,5.37
2019-02-23T00:39:43.433Z,5.24
2019-02-23T00:40:43.444Z,5.09
2019-02-23T00:41:43.472Z,4.99
2019-02-23T00:42:43.407Z,4.77
2019-02-23T00:43:43.401Z,4.67
2019-02-23T00:44:43.394Z,4.49
2019-02-23T00:45:43.397Z,4.29
2019-02-23T00:46:43.366Z,4.21
2019-02-23T00:47:43.356Z,4.26
2019-02-23T00:48:43.363Z,4.26
2019-02-23T00:49:43.348Z,4.29
2019-02-23T00:50:43.339Z,5.05
2019-02-23T00:51:43.321Z,5.27
2019-02-23T00:52:43.298Z,5.26
2019-02-23T00:53:43.325Z,5.41
2019-02-23T00:54:43.284Z,5.41
2019-02-23T00:55:43.305Z,5.27
2019-02-23T00:56:43.267Z,5.33
2019-02-23T00:57:43.250Z,5.51
2019-02-23T00:58:43.237Z,5.62
2019-02-23T00:59:43.247Z,5.60
2019-02-23T01:00:43.228Z,5.98
2019-02-23T01:01:43.226Z,6.36
2019-02-23T01:02:43.222Z,6.86
2019-02-23T01:03:43.337Z,6.96
2019-02-23T01:04:43.196Z,7.26
2019-02-23T01:05:43.188Z,7.42
2019-02-23T01:06:43.186Z,7.54
2019-02-23T01:07:43.157Z,7.73
2019-02-23T01:08:43.152Z,7.81
2019-02-23T01:09:43.151Z,7.82
2019-02-23T01:10:43.133Z,7.85
2019-02-23T01:11:43.129Z,7.99
2019-02-23T01:12:43.093Z,8.00
2019-02-23T01:13:43.083Z,8.02
2019-02-23T01:14:43.084Z,8.00
2019-02-23T01:15:43.091Z,7.84
2019-02-23T01:16:43.065Z,7.77
2019-02-23T01:17:43.054Z,7.84
2019-02-23T01:18:43.036Z,7.82
2019-02-23T01:19:47.897Z,8.12
2019-02-23T01:20:44.029Z,8.10
2019-02-23T01:21:42.997Z,8.10
2019-02-23T01:22:42.979Z,8.18
2019-02-23T01:23:43.002Z,8.21
2019-02-23T01:24:42.965Z,8.20
2019-02-23T01:25:42.949Z,8.00
2019-02-23T01:26:42.985Z,7.96
2019-02-23T01:27:42.942Z,8.00
2019-02-23T01:28:42.957Z,7.96
2019-02-23T01:29:42.913Z,7.91
2019-02-23T01:30:42.921Z,7.86
2019-02-23T01:31:42.906Z,7.77
2019-02-23T01:32:42.912Z,7.70
2019-02-23T01:33:42.877Z,7.54
2019-02-23T01:34:42.889Z,7.54
2019-02-23T01:35:42.877Z,7.52
2019-02-23T01:36:42.911Z,7.41
2019-02-23T01:37:42.827Z,7.44
2019-02-23T01:38:42.816Z,7.26
2019-02-23T01:39:42.855Z,7.04
2019-02-23T01:40:42.821Z,6.93
2019-02-23T01:41:42.822Z,6.55
2019-02-23T01:42:42.796Z,6.35
2019-02-23T01:43:42.804Z,6.21
2019-02-23T01:44:42.765Z,6.02
2019-02-23T01:45:42.868Z,5.90
2019-02-23T01:46:42.803Z,5.92
2019-02-23T01:47:42.723Z,5.65
2019-02-23T01:48:42.719Z,5.52
2019-02-23T01:49:42.710Z,5.29
2019-02-23T01:50:42.701Z,5.14
2019-02-23T01:51:42.709Z,5.17
2019-02-23T01:52:42.671Z,5.12
2019-02-23T01:53:42.709Z,5.12
2019-02-23T01:54:42.674Z,5.06
2019-02-23T01:55:42.683Z,5.35
2019-02-23T01:56:42.646Z,5.26
2019-02-23T01:57:42.629Z,5.29
2019-02-23T01:58:42.599Z,5.32
2019-02-23T01:59:42.606Z,5.30
2019-02-23T02:00:42.591Z,5.26
2019-02-23T02:01:42.608Z,5.06
2019-02-23T02:02:42.645Z,4.90
2019-02-23T02:03:42.559Z,4.61
2019-02-23T02:04:42.550Z,4.31
2019-02-23T02:05:42.546Z,4.25
2019-02-23T02:06:42.550Z,4.18
2019-02-23T02:07:42.554Z,4.18
2019-02-23T02:08:42.540Z,4.17
2019-02-23T02:09:42.506Z,4.28
2019-02-23T02:10:42.491Z,4.25
2019-02-23T02:11:42.500Z,4.24
2019-02-23T02:12:42.467Z,4.31
2019-02-23T02:13:42.471Z,4.43
2019-02-23T02:14:42.466Z,4.53
2019-02-23T02:15:42.459Z,4.59
2019-02-23T02:16:42.469Z,4.50
2019-02-23T02:17:42.411Z,4.31
2019-02-23T02:18:42.404Z,4.20
2019-02-23T02:19:42.392Z,4.13
2019-02-23T02:20:42.373Z,3.99
2019-02-23T02:21:42.443Z,3.93
2019-02-23T02:22:42.353Z,3.77
2019-02-23T02:23:42.366Z,3.77
2019-02-23T02:24:42.345Z,3.62
2019-02-23T02:25:42.315Z,3.64
2019-02-23T02:26:42.332Z,3.96
2019-02-23T02:27:42.305Z,4.17
2019-02-23T02:28:42.297Z,4.29
2019-02-23T02:29:42.283Z,4.43
2019-02-23T02:30:42.280Z,4.51
2019-02-23T02:31:42.264Z,4.62
2019-02-23T02:32:42.264Z,4.59
2019-02-23T02:33:42.264Z,4.50
2019-02-23T02:34:42.253Z,4.26
2019-02-23T02:35:42.214Z,4.13
2019-02-23T02:36:42.204Z,4.07
2019-02-23T02:37:42.205Z,4.02
2019-02-23T02:38:42.184Z,4.00
2019-02-23T02:39:42.185Z,3.99
2019-02-23T02:40:42.176Z,3.98
2019-02-23T02:41:42.157Z,3.81
2019-02-23T02:42:42.160Z,3.84
2019-02-23T02:43:42.131Z,3.82
2019-02-23T02:44:42.168Z,3.77
2019-02-23T02:45:42.120Z,3.62
2019-02-23T02:46:42.135Z,3.53
2019-02-23T02:47:42.100Z,3.42
2019-02-23T02:48:42.111Z,3.28
2019-02-23T02:49:42.067Z,3.12
2019-02-23T02:50:42.076Z,3.02
2019-02-23T02:51:42.076Z,2.86
2019-02-23T02:52:42.083Z,2.66
2019-02-23T02:53:42.056Z,2.68
2019-02-23T02:54:42.021Z,2.58
2019-02-23T02:55:42.005Z,2.45
2019-02-23T02:56:41.996Z,2.59
2019-02-23T02:57:42.019Z,2.73
2019-02-23T02:58:41.982Z,2.83
2019-02-23T02:59:41.962Z,2.73
2019-02-23T03:00:42.018Z,2.81
2019-02-23T03:01:41.947Z,2.59
2019-02-23T03:02:41.944Z,2.38
2019-02-23T03:03:41.958Z,2.20
2019-02-23T03:04:41.917Z,2.01
2019-02-23T03:05:41.938Z,1.88
2019-02-23T03:06:41.890Z,1.82
2019-02-23T03:07:41.927Z,1.63
2019-02-23T03:08:41.882Z,1.71
2019-02-23T03:09:41.876Z,1.65
2019-02-23T03:10:41.884Z,1.70
2019-02-23T03:11:41.870Z,1.70
2019-02-23T03:12:41.851Z,1.72
2019-02-23T03:13:41.811Z,1.79
2019-02-23T03:14:41.839Z,1.60
2019-02-23T03:15:41.792Z,1.46
2019-02-23T03:16:41.779Z,1.20
2019-02-23T03:17:41.780Z,1.13
2019-02-23T03:18:41.756Z,1.17
2019-02-23T03:19:41.761Z,1.11
2019-02-23T03:20:41.746Z,1.28
2019-02-23T03:21:41.735Z,1.28
2019-02-23T03:22:41.742Z,1.28
2019-02-23T03:23:41.713Z,1.20
2019-02-23T03:24:41.740Z,1.11
2019-02-23T03:25:41.688Z,0.96
2019-02-23T03:26:41.679Z,1.14
2019-02-23T03:27:41.734Z,1.20
2019-02-23T03:28:41.658Z,1.49
2019-02-23T03:29:41.798Z,1.47
2019-02-23T03:30:41.656Z,1.26
2019-02-23T03:31:41.641Z,1.17
2019-02-23T03:32:41.640Z,1.08
2019-02-23T03:33:41.633Z,1.02
2019-02-23T03:34:41.603Z,1.08
2019-02-23T03:35:41.606Z,0.98
2019-02-23T03:36:41.575Z,0.98
2019-02-23T03:37:41.574Z,1.02
2019-02-23T03:38:41.552Z,0.99
2019-02-23T03:39:41.579Z,1.04
2019-02-23T03:40:41.560Z,0.95
2019-02-23T03:41:41.539Z,0.90
2019-02-23T03:42:41.563Z,0.71
2019-02-23T03:43:41.541Z,0.74
2019-02-23T03:44:41.499Z,0.67
2019-02-23T03:45:41.484Z,0.56
2019-02-23T03:46:41.487Z,0.59
2019-02-23T03:47:41.460Z,0.62
2019-02-23T03:48:41.517Z,0.57
2019-02-23T03:49:41.486Z,0.53
2019-02-23T03:50:49.025Z,0.62
2019-02-23T03:51:42.446Z,0.78
2019-02-23T03:52:41.423Z,1.04
2019-02-23T03:53:41.445Z,1.14
2019-02-23T03:54:41.391Z,1.06
2019-02-23T03:55:41.379Z,0.88
2019-02-23T03:56:41.395Z,0.77
2019-02-23T03:57:41.369Z,0.60
2019-02-23T03:58:41.376Z,0.51
2019-02-23T03:59:41.408Z,0.49
2019-02-23T04:00:41.332Z,0.31
2019-02-23T04:01:41.334Z,0.28
2019-02-23T04:02:41.356Z,0.68
2019-02-23T04:03:41.317Z,0.99
2019-02-23T04:04:41.311Z,1.10
2019-02-23T04:05:41.295Z,0.98
2019-02-23T04:06:41.265Z,0.92
2019-02-23T04:07:41.266Z,0.80
2019-02-23T04:08:41.263Z,1.14
2019-02-23T04:09:41.242Z,1.43
2019-02-23T04:10:41.253Z,1.35
2019-02-23T04:11:41.220Z,1.08
2019-02-23T04:12:41.333Z,0.96
2019-02-23T04:13:41.194Z,1.54
2019-02-23T04:14:41.189Z,1.71
2019-02-23T04:15:41.169Z,1.56
2019-02-23T04:16:41.160Z,1.42
2019-02-23T04:17:41.160Z,1.47
2019-02-23T04:18:41.159Z,1.24
2019-02-23T04:19:41.146Z,1.44
2019-02-23T04:20:41.131Z,1.60
2019-02-23T04:21:41.131Z,1.50
2019-02-23T04:22:41.106Z,1.24
2019-02-23T04:23:41.115Z,1.08
2019-02-23T04:24:41.082Z,1.21
2019-02-23T04:25:41.095Z,1.21
2019-02-23T04:26:41.076Z,1.21
2019-02-23T04:27:41.050Z,1.32
2019-02-23T04:28:41.058Z,1.49
2019-02-23T04:29:41.074Z,1.16
2019-02-23T04:30:41.022Z,1.07
2019-02-23T04:31:41.001Z,1.10
2019-02-23T04:32:41.016Z,1.44
2019-02-23T04:33:40.990Z,1.61
2019-02-23T04:34:40.978Z,1.56
2019-02-23T04:35:40.960Z,1.46
2019-02-23T04:36:40.963Z,1.21
2019-02-23T04:37:40.995Z,0.96
2019-02-23T04:38:40.939Z,1.07
2019-02-23T04:39:40.938Z,0.88
2019-02-23T04:40:40.913Z,0.96
2019-02-23T04:41:40.894Z,1.06
2019-02-23T04:42:40.902Z,1.38
2019-02-23T04:43:44.005Z,1.65
2019-02-23T04:44:40.873Z,1.79
2019-02-23T04:45:40.858Z,1.85
2019-02-23T04:46:40.864Z,1.83
2019-02-23T04:47:40.841Z,1.83
2019-02-23T04:48:40.849Z,1.83
2019-02-23T04:49:40.975Z,1.72
2019-02-23T04:50:40.808Z,1.81
2019-02-23T04:51:40.804Z,1.79
2019-02-23T04:52:40.797Z,1.92
2019-02-23T04:53:40.772Z,1.67
2019-02-23T04:54:40.810Z,1.61
2019-02-23T04:55:40.770Z,1.52
2019-02-23T04:56:40.738Z,1.53
2019-02-23T04:57:40.753Z,1.75
2019-02-23T04:58:40.743Z,1.83
2019-02-23T04:59:40.748Z,1.90
2019-02-23T05:00:40.768Z,1.68
2019-02-23T05:01:40.693Z,1.61
2019-02-23T05:02:40.680Z,1.53
2019-02-23T05:03:40.665Z,1.44
2019-02-23T05:04:40.760Z,1.26
2019-02-23T05:05:40.645Z,1.11
2019-02-23T05:06:40.644Z,1.13
2019-02-23T05:07:40.656Z,0.84
2019-02-23T05:08:40.638Z,0.78
2019-02-23T05:09:40.653Z,1.07
2019-02-23T05:10:40.604Z,1.31
2019-02-23T05:11:40.616Z,1.29
2019-02-23T05:12:40.574Z,1.28
2019-02-23T05:13:40.572Z,1.44
2019-02-23T05:14:40.572Z,1.52
2019-02-23T05:15:40.559Z,1.67
2019-02-23T05:16:40.544Z,1.57
2019-02-23T05:17:40.562Z,1.50
2019-02-23T05:18:40.560Z,1.53
2019-02-23T05:19:40.523Z,1.43
2019-02-23T05:20:40.551Z,1.46
2019-02-23T05:21:40.484Z,1.54
2019-02-23T05:22:40.497Z,1.47
2019-02-23T05:23:40.478Z,1.36
2019-02-23T05:24:40.501Z,1.31
2019-02-23T05:25:40.587Z,1.26
2019-02-23T05:26:40.432Z,1.25
2019-02-23T05:27:40.428Z,1.20
2019-02-23T05:28:40.424Z,1.08
2019-02-23T05:29:40.427Z,0.99
2019-02-23T05:30:40.388Z,0.90
2019-02-23T05:31:40.371Z,0.86
2019-02-23T05:32:40.377Z,0.72
2019-02-23T05:33:40.368Z,0.51
2019-02-23T05:34:40.358Z,0.44
2019-02-23T05:35:40.401Z,0.26
2019-02-23T05:36:40.321Z,0.31
2019-02-23T05:37:40.331Z,0.31
2019-02-23T05:38:40.305Z,0.52
2019-02-23T05:39:40.333Z,0.90
2019-02-23T05:40:40.346Z,0.99
2019-02-23T05:41:40.284Z,0.93
2019-02-23T05:42:40.271Z,0.74
2019-02-23T05:43:40.261Z,1.08
2019-02-23T05:44:40.262Z,1.35
2019-02-23T05:45:40.259Z,1.26
2019-02-23T05:46:40.261Z,1.06
2019-02-23T05:47:40.253Z,1.10
2019-02-23T05:48:40.196Z,1.28
2019-02-23T05:49:40.209Z,1.31
2019-02-23T05:50:40.202Z,0.96
2019-02-23T05:51:40.182Z,1.10
2019-02-23T05:52:40.162Z,1.28
2019-02-23T05:53:40.187Z,1.42
2019-02-23T05:54:40.196Z,1.28
2019-02-23T05:55:40.134Z,1.21
2019-02-23T05:56:40.145Z,1.20
2019-02-23T05:57:40.158Z,1.10
2019-02-23T05:58:40.136Z,1.02
2019-02-23T05:59:40.094Z,1.13
2019-02-23T06:00:40.144Z,0.92
2019-02-23T06:01:40.095Z,0.78
2019-02-23T06:02:40.078Z,0.71
2019-02-23T06:03:40.056Z,0.72
2019-02-23T06:04:40.048Z,0.72
2019-02-23T06:05:40.068Z,0.44
2019-02-23T06:06:40.036Z,0.31
2019-02-23T06:07:40.055Z,0.20
2019-02-23T06:08:40.021Z,0.10
2019-02-23T06:09:39.990Z,0.13
2019-02-23T06:10:39.985Z,-0.02
2019-02-23T06:11:39.962Z,0.12
2019-02-23T06:12:39.963Z,0.10
2019-02-23T06:13:39.943Z,-0.08
2019-02-23T06:14:39.937Z,-0.16
2019-02-23T06:15:39.996Z,-0.16
2019-02-23T06:16:39.917Z,-0.24
2019-02-23T06:17:39.925Z,-0.19
2019-02-23T06:18:39.926Z,-0.08
2019-02-23T06:19:39.903Z,-0.16
2019-02-23T06:20:39.904Z,-0.35
2019-02-23T06:21:52.731Z,-0.30
2019-02-23T06:22:40.973Z,-0.35
2019-02-23T06:23:39.871Z,-0.45
2019-02-23T06:24:39.841Z,-0.49
2019-02-23T06:25:39.861Z,-0.03
2019-02-23T06:26:39.803Z,0.37
2019-02-23T06:27:39.838Z,0.30
2019-02-23T06:28:39.786Z,0.17
2019-02-23T06:29:39.826Z,0.34
2019-02-23T06:30:39.806Z,0.16
2019-02-23T06:31:39.773Z,0.04
2019-02-23T06:32:39.776Z,0.34
2019-02-23T06:33:39.774Z,0.26
2019-02-23T06:34:39.746Z,0.34
2019-02-23T06:35:39.774Z,0.35
2019-02-23T06:36:39.714Z,0.34
2019-02-23T06:37:39.687Z,0.25
2019-02-23T06:38:39.696Z,0.25
2019-02-23T06:39:39.674Z,0.16
2019-02-23T06:40:39.677Z,0.10
2019-02-23T06:41:39.697Z,0.01
2019-02-23T06:42:39.661Z,-0.06
2019-02-23T06:43:39.715Z,-0.05
2019-02-23T06:44:39.654Z,-0.12
2019-02-23T06:45:39.688Z,-0.02
2019-02-23T06:46:39.644Z,-0.13
2019-02-23T06:47:39.615Z,-0.06
2019-02-23T06:48:39.577Z,0.08
2019-02-23T06:49:39.645Z,0.23
2019-02-23T06:50:39.658Z,0.34
2019-02-23T06:51:39.563Z,0.70
2019-02-23T06:52:39.539Z,0.98
2019-02-23T06:53:39.546Z,1.32
2019-02-23T06:54:39.523Z,1.61
2019-02-23T06:55:39.540Z,1.49
2019-02-23T06:56:39.636Z,1.43
2019-02-23T06:57:39.495Z,1.47
2019-02-23T06:58:39.470Z,1.57
2019-02-23T06:59:39.460Z,1.43
2019-02-23T07:00:39.473Z,1.46
2019-02-23T07:01:39.463Z,1.49
2019-02-23T07:02:39.477Z,1.38
2019-02-23T07:03:39.418Z,1.35
2019-02-23T07:04:39.423Z,1.44
2019-02-23T07:05:39.434Z,1.47
2019-02-23T07:06:39.401Z,1.57
2019-02-23T07:07:39.417Z,1.64
2019-02-23T07:08:39.420Z,1.68
2019-02-23T07:09:39.423Z,1.93
2019-02-23T07:10:39.366Z,2.20
2019-02-23T07:11:39.385Z,2.61
2019-02-23T07:12:39.333Z,2.55
2019-02-23T07:13:39.355Z,2.68
2019-02-23T07:14:39.308Z,2.90
2019-02-23T07:15:39.600Z,3.15
2019-02-23T07:16:39.341Z,3.49
2019-02-23T07:17:39.304Z,3.86
2019-02-23T07:18:39.266Z,4.06
2019-02-23T07:19:39.259Z,4.31
2019-02-23T07:20:44.114Z,4.57
2019-02-23T07:21:40.342Z,4.69
2019-02-23T07:22:39.350Z,5.02
2019-02-23T07:23:39.208Z,5.15
2019-02-23T07:24:39.266Z,5.44
2019-02-23T07:25:39.226Z,5.84
2019-02-23T07:26:39.218Z,6.05
2019-02-23T07:27:39.328Z,6.24
2019-02-23T07:28:39.158Z,6.38
2019-02-23T07:29:39.148Z,6.25
2019-02-23T07:30:39.215Z,6.58
2019-02-23T07:31:39.135Z,6.58
2019-02-23T07:32:39.114Z,6.57
2019-02-23T07:33:39.130Z,6.64
2019-02-23T07:34:39.123Z,6.87
2019-02-23T07:35:39.139Z,6.91
2019-02-23T07:36:39.082Z,7.08
2019-02-23T07:37:39.070Z,7.26
2019-02-23T07:38:39.096Z,7.67
2019-02-23T07:39:39.102Z,8.10
2019-02-23T07:40:39.061Z,8.09
2019-02-23T07:41:39.065Z,8.04
2019-02-23T07:42:39.054Z,8.00
2019-02-23T07:43:39.014Z,8.04
2019-02-23T07:44:39.097Z,8.31
2019-02-23T07:45:39.025Z,8.34
2019-02-23T07:46:38.997Z,8.37
2019-02-23T07:47:38.976Z,8.46
2019-02-23T07:48:38.978Z,8.52
2019-02-23T07:49:38.935Z,8.54
2019-02-23T07:50:38.950Z,8.28
2019-02-23T07:51:38.967Z,8.17
2019-02-23T07:52:38.908Z,8.02
2019-02-23T07:53:38.920Z,7.88
2019-02-23T07:54:38.894Z,7.92
2019-02-23T07:55:38.915Z,8.09
2019-02-23T07:56:38.883Z,8.29
2019-02-23T07:57:38.931Z,8.39
2019-02-23T07:58:38.948Z,8.29
2019-02-23T07:59:38.835Z,8.27
2019-02-23T08:00:38.850Z,8.34
2019-02-23T08:01:38.841Z,8.37
2019-02-23T08:02:38.879Z,8.50
2019-02-23T08:03:38.846Z,8.50
2019-02-23T08:04:38.818Z,8.24
2019-02-23T08:05:38.859Z,8.13
2019-02-23T08:06:38.798Z,8.27
2019-02-23T08:07:39.905Z,8.29
2019-02-23T08:08:38.764Z,8.57
2019-02-23T08:09:38.743Z,8.70
2019-02-23T08:10:38.745Z,8.50
2019-02-23T08:11:38.761Z,8.61
2019-02-23T08:12:38.733Z,8.76
2019-02-23T08:13:40.624Z,8.98
2019-02-23T08:14:38.685Z,9.20
2019-02-23T08:15:38.660Z,9.32
2019-02-23T08:16:38.785Z,9.77
2019-02-23T08:17:38.640Z,9.63
2019-02-23T08:18:38.711Z,9.35
2019-02-23T08:19:38.694Z,9.22
2019-02-23T08:20:38.668Z,9.35
2019-02-23T08:21:38.649Z,9.62
2019-02-23T08:22:38.653Z,9.83
2019-02-23T08:23:38.629Z,9.92
2019-02-23T08:24:38.628Z,10.04
2019-02-23T08:25:38.611Z,10.28
2019-02-23T08:26:38.607Z,10.65
2019-02-23T08:27:38.632Z,10.93
2019-02-23T08:28:38.523Z,11.08
2019-02-23T08:29:38.547Z,10.90
2019-02-23T08:30:38.703Z,11.05
2019-02-23T08:31:38.528Z,11.27
2019-02-23T08:32:38.495Z,11.13
2019-02-23T08:33:38.539Z,10.36
2019-02-23T08:34:38.518Z,10.73
2019-02-23T08:35:38.489Z,11.26
2019-02-23T08:36:38.449Z,11.20
2019-02-23T08:37:38.492Z,11.12
2019-02-23T08:38:38.505Z,10.63
2019-02-23T08:39:38.466Z,10.43
2019-02-23T08:40:38.396Z,10.25
2019-02-23T08:41:38.483Z,10.20
2019-02-23T08:42:38.421Z,10.18
2019-02-23T08:43:38.439Z,10.10
2019-02-23T08:44:38.352Z,10.55
2019-02-23T08:45:38.352Z,11.06
2019-02-23T08:46:38.409Z,11.21
2019-02-23T08:47:38.341Z,11.08
2019-02-23T08:48:38.359Z,11.19
2019-02-23T08:49:38.310Z,11.54
2019-02-23T08:50:38.381Z,11.39
2019-02-23T08:51:38.308Z,11.08
2019-02-23T08:52:48.622Z,10.99
2019-02-23T08:53:39.269Z,11.17
2019-02-23T08:54:38.265Z,11.45
2019-02-23T08:55:38.268Z,11.26
2019-02-23T08:56:38.233Z,11.59
2019-02-23T08:57:38.227Z,12.03
2019-02-23T08:58:38.281Z,11.78
2019-02-23T08:59:38.199Z,11.45
2019-02-23T09:00:38.186Z,11.90
2019-02-23T09:01:38.198Z,11.82
2019-02-23T09:02:38.165Z,11.82
2019-02-23T09:03:38.158Z,12.26
2019-02-23T09:04:38.136Z,13.07
2019-02-23T09:05:38.128Z,13.69
2019-02-23T09:06:38.174Z,13.66
2019-02-23T09:07:38.141Z,13.63
2019-02-23T09:08:38.151Z,13.04
2019-02-23T09:09:38.136Z,12.74
2019-02-23T09:10:38.080Z,12.79
2019-02-23T09:11:38.129Z,12.54
2019-02-23T09:12:38.059Z,12.41
2019-02-23T09:13:38.125Z,12.25
2019-02-23T09:14:38.034Z,12.59
2019-02-23T09:15:38.026Z,13.14
2019-02-23T09:16:38.036Z,13.90
2019-02-23T09:17:38.036Z,14.38
2019-02-23T09:18:38.032Z,14.31
2019-02-23T09:19:38.044Z,14.02
2019-02-23T09:20:38.067Z,13.63
2019-02-23T09:21:38.014Z,13.65
2019-02-23T09:22:38.017Z,13.62
2019-02-23T09:23:37.940Z,13.55
2019-02-23T09:24:37.924Z,13.57
2019-02-23T09:25:37.995Z,13.86
2019-02-23T09:26:37.935Z,14.45
2019-02-23T09:27:37.895Z,14.16
2019-02-23T09:28:37.940Z,14.26
2019-02-23T09:29:37.883Z,14.35
2019-02-23T09:30:37.861Z,14.69
2019-02-23T09:31:37.890Z,14.67
2019-02-23T09:32:37.892Z,13.80
2019-02-23T09:33:37.858Z,13.68
2019-02-23T09:34:37.811Z,13.39
2019-02-23T09:35:37.830Z,13.35
2019-02-23T09:36:37.861Z,13.53
2019-02-23T09:37:37.802Z,13.32
2019-02-23T09:38:37.802Z,13.32
2019-02-23T09:39:37.860Z,13.68
2019-02-23T09:40:37.793Z,13.51
2019-02-23T09:41:37.786Z,13.75
2019-02-23T09:42:37.754Z,14.02
2019-02-23T09:43:37.865Z,14.60
2019-02-23T09:44:37.708Z,14.91
2019-02-23T09:45:37.727Z,15.11
2019-02-23T09:46:37.712Z,14.80
2019-02-23T09:47:37.687Z,15.09
2019-02-23T09:48:37.726Z,15.13
2019-02-23T09:49:37.656Z,15.16
2019-02-23T09:50:37.649Z,14.97
2019-02-23T09:51:37.670Z,14.85
2019-02-23T09:52:37.646Z,14.48
2019-02-23T09:53:37.652Z,14.24
2019-02-23T09:54:37.593Z,14.49
2019-02-23T09:55:37.594Z,14.91
2019-02-23T09:56:37.658Z,15.12
2019-02-23T09:57:37.565Z,14.63
2019-02-23T09:58:37.651Z,14.59
2019-02-23T09:59:40.059Z,14.61
2019-02-23T10:00:37.588Z,14.38
2019-02-23T10:01:37.574Z,14.24
2019-02-23T10:02:37.508Z,14.79
2019-02-23T10:03:37.565Z,14.63
2019-02-23T10:04:37.486Z,14.83
2019-02-23T10:05:38.309Z,14.93
2019-02-23T10:06:37.523Z,15.20
2019-02-23T10:07:37.456Z,15.18
2019-02-23T10:08:37.478Z,14.82
2019-02-23T10:09:37.436Z,14.74
2019-02-23T10:10:37.512Z,14.98
2019-02-23T10:11:37.428Z,15.12
2019-02-23T10:12:37.469Z,15.41
2019-02-23T10:13:37.388Z,15.35
2019-02-23T10:14:37.402Z,15.22
2019-02-23T10:15:37.406Z,15.15
2019-02-23T10:16:37.429Z,15.60
2019-02-23T10:17:37.427Z,15.88
2019-02-23T10:18:37.345Z,15.98
2019-02-23T10:19:37.331Z,15.84
2019-02-23T10:20:37.340Z,16.17
2019-02-23T10:21:37.324Z,15.98
2019-02-23T10:22:39.527Z,15.51
2019-02-23T10:23:37.343Z,15.55
2019-02-23T10:24:37.298Z,15.88
2019-02-23T10:25:37.258Z,16.16
2019-02-23T10:26:37.289Z,16.16
2019-02-23T10:27:37.237Z,16.01
2019-02-23T10:28:37.223Z,16.14
2019-02-23T10:29:37.213Z,15.95
2019-02-23T10:30:37.392Z,15.52
2019-02-23T10:31:37.263Z,14.93
2019-02-23T10:32:37.201Z,14.85
2019-02-23T10:33:46.923Z,15.15
2019-02-23T10:34:38.191Z,15.31
2019-02-23T10:35:37.217Z,15.89
2019-02-23T10:36:37.164Z,15.89
2019-02-23T10:37:37.505Z,15.85
2019-02-23T10:38:37.160Z,15.81
2019-02-23T10:39:37.110Z,15.96
2019-02-23T10:40:37.138Z,16.07
2019-02-23T10:41:37.121Z,15.89
2019-02-23T10:42:37.119Z,15.98
2019-02-23T10:43:37.205Z,15.66
2019-02-23T10:44:37.103Z,15.12
2019-02-23T10:45:37.116Z,15.60
2019-02-23T10:46:37.080Z,15.98
2019-02-23T10:47:37.053Z,16.45
2019-02-23T10:48:37.094Z,16.78
2019-02-23T10:49:37.026Z,16.85
2019-02-23T10:50:37.041Z,16.81
2019-02-23T10:51:36.993Z,16.80
2019-02-23T10:52:37.041Z,16.90
2019-02-23T10:53:37.093Z,16.82
2019-02-23T10:54:36.973Z,16.14
2019-02-23T10:55:36.935Z,16.22
2019-02-23T10:56:36.927Z,16.52
2019-02-23T10:57:36.927Z,15.95
2019-02-23T10:58:37.224Z,16.10
2019-02-23T10:59:36.935Z,16.03
2019-02-23T11:00:37.216Z,16.08
2019-02-23T11:01:36.904Z,16.32
2019-02-23T11:02:37.024Z,16.72
2019-02-23T11:03:36.848Z,16.82
2019-02-23T11:04:36.924Z,16.78
2019-02-23T11:05:37.007Z,17.32
2019-02-23T11:06:38.512Z,16.91
2019-02-23T11:07:36.913Z,16.32
2019-02-23T11:08:36.794Z,15.96
2019-02-23T11:09:36.835Z,15.31
2019-02-23T11:10:36.774Z,15.53
2019-02-23T11:11:36.814Z,15.99
2019-02-23T11:12:36.786Z,16.08
2019-02-23T11:13:36.803Z,15.67
2019-02-23T11:14:41.304Z,15.38
2019-02-23T11:15:37.680Z,15.67
2019-02-23T11:16:37.087Z,16.22
2019-02-23T11:17:36.909Z,16.04
2019-02-23T11:18:36.733Z,16.10
2019-02-23T11:19:36.729Z,16.22
2019-02-23T11:20:36.810Z,16.60
2019-02-23T11:21:36.657Z,16.62
2019-02-23T11:22:36.814Z,17.10
2019-02-23T11:23:43.843Z,16.92
2019-02-23T11:24:37.631Z,17.18
2019-02-23T11:25:37.097Z,17.00
2019-02-23T11:26:36.670Z,16.57
2019-02-23T11:27:36.835Z,16.40
2019-02-23T11:28:36.782Z,16.41
2019-02-23T11:29:36.580Z,16.40
2019-02-23T11:30:36.560Z,16.36
2019-02-23T11:31:36.686Z,16.77
2019-02-23T11:32:36.555Z,17.12
2019-02-23T11:33:36.527Z,16.99
2019-02-23T11:34:36.517Z,16.72
2019-02-23T11:35:36.647Z,16.77
2019-02-23T11:36:36.718Z,16.75
2019-02-23T11:37:37.056Z,16.73
2019-02-23T11:38:36.620Z,16.62
2019-02-23T11:39:36.557Z,16.45
2019-02-23T11:40:36.653Z,16.72
2019-02-23T11:41:36.442Z,16.73
2019-02-23T11:42:36.941Z,17.02
2019-02-23T11:43:36.445Z,17.32
2019-02-23T11:44:36.623Z,16.98
2019-02-23T11:45:36.607Z,16.85
2019-02-23T11:46:36.569Z,17.24
2019-02-23T11:47:36.395Z,17.09
2019-02-23T11:48:36.389Z,17.38
2019-02-23T11:49:36.379Z,17.87
2019-02-23T11:50:36.519Z,17.99
2019-02-23T11:51:36.490Z,17.47
2019-02-23T11:52:36.653Z,17.60
2019-02-23T11:53:36.471Z,17.47
2019-02-23T11:54:36.371Z,17.47
2019-02-23T11:55:36.294Z,17.60
2019-02-23T11:56:36.292Z,17.58
2019-02-23T11:57:36.366Z,17.74
2019-02-23T11:58:36.310Z,17.71
2019-02-23T11:59:36.250Z,17.99
2019-02-23T12:00:36.441Z,18.38
2019-02-23T12:01:36.398Z,18.29
2019-02-23T12:02:36.232Z,17.96
2019-02-23T12:03:36.206Z,17.76
2019-02-23T12:04:36.197Z,17.74
2019-02-23T12:05:36.187Z,17.70
2019-02-23T12:06:36.246Z,17.57
2019-02-23T12:07:36.193Z,17.35
2019-02-23T12:08:36.157Z,17.12
2019-02-23T12:09:36.152Z,17.06
2019-02-23T12:10:36.133Z,17.22
2019-02-23T12:11:36.173Z,17.36
2019-02-23T12:12:36.195Z,17.49
2019-02-23T12:13:36.105Z,17.43
2019-02-23T12:14:36.300Z,17.54
2019-02-23T12:15:36.131Z,17.81
2019-02-23T12:16:36.071Z,17.92
2019-02-23T12:17:36.229Z,17.76
2019-02-23T12:18:36.058Z,17.83
2019-02-23T12:19:36.063Z,17.91
2019-02-23T12:20:36.192Z,17.99
2019-02-23T12:21:36.039Z,17.87
2019-02-23T12:22:36.041Z,17.76
2019-02-23T12:23:35.997Z,17.74
2019-02-23T12:24:35.987Z,17.76
2019-02-23T12:25:36.220Z,17.91
2019-02-23T12:26:35.964Z,18.02
2019-02-23T12:27:36.248Z,18.02
2019-02-23T12:28:36.368Z,17.99
2019-02-23T12:29:36.081Z,18.13
2019-02-23T12:30:35.927Z,18.02
2019-02-23T12:31:35.916Z,17.99
2019-02-23T12:32:36.016Z,18.02
2019-02-23T12:33:35.915Z,17.99
2019-02-23T12:34:36.050Z,17.91
2019-02-23T12:35:35.872Z,17.65
2019-02-23T12:36:35.861Z,17.80
2019-02-23T12:37:36.527Z,18.14
2019-02-23T12:38:35.873Z,18.53
2019-02-23T12:39:35.909Z,18.99
2019-02-23T12:40:35.945Z,18.84
2019-02-23T12:41:35.970Z,18.68
2019-02-23T12:42:35.958Z,18.78
2019-02-23T12:43:35.804Z,18.57
2019-02-23T12:44:35.786Z,18.10
2019-02-23T12:45:35.762Z,18.51
2019-02-23T12:46:35.751Z,18.79
2019-02-23T12:47:35.817Z,18.79
2019-02-23T12:48:35.834Z,18.91
2019-02-23T12:49:35.753Z,18.65
2019-02-23T12:50:35.717Z,18.69
2019-02-23T12:51:35.696Z,18.97
2019-02-23T12:52:35.686Z,18.91
2019-02-23T12:53:35.851Z,18.86
2019-02-23T12:54:35.692Z,18.71
2019-02-23T12:55:35.663Z,18.56
2019-02-23T12:56:35.654Z,18.57
2019-02-23T12:57:35.639Z,18.02
2019-02-23T12:58:35.635Z,18.13
2019-02-23T12:59:35.675Z,17.86
2019-02-23T13:00:35.609Z,18.02
2019-02-23T13:01:35.615Z,17.94
2019-02-23T13:02:35.612Z,18.01
2019-02-23T13:03:35.585Z,18.75
2019-02-23T13:04:35.659Z,18.97
2019-02-23T13:05:35.626Z,19.21
2019-02-23T13:06:35.562Z,19.60
2019-02-23T13:07:35.529Z,19.94
2019-02-23T13:08:35.528Z,20.37